Aviation Digital Data Service (ADDS)

Output produced by METARs form (1420 UTC 19 July 2019)
found at http://aviationweather.gov/metar/data/
 
METAR text: EYKA 191350Z 28010KT 250V340 CAVOK 24/09 Q1013
Conditions at: EYKA (KAUNAS , LT) observed 1350 UTC 19 July 2019
Temperature: 24.0°C (75°F)
Dewpoint: 9.0°C (48°F) [RH = 38%]
Pressure (altimeter): 29.91 inches Hg (1013.0 mb)
Winds: from the W (280 degrees) at 12 MPH (10 knots; 5.1 m/s)
Visibility: 6 or more miles (10+ km)
Ceiling: ceiling and visibility are OK
Clouds: unknown
Weather: no significant weather observed at this time

METAR text: EYKA 191320Z 28009KT 240V330 CAVOK 23/09 Q1013
Conditions at: EYKA (KAUNAS , LT) observed 1320 UTC 19 July 2019
Temperature: 23.0°C (73°F)
Dewpoint: 9.0°C (48°F) [RH = 41%]
Pressure (altimeter): 29.91 inches Hg (1013.0 mb)
Winds: from the W (280 degrees) at 10 MPH (9 knots; 4.6 m/s)
Visibility: 6 or more miles (10+ km)
Ceiling: ceiling and visibility are OK
Clouds: unknown
Weather: no significant weather observed at this time

METAR text: EYKA 191250Z 29007KT 250V340 CAVOK 23/09 Q1013
Conditions at: EYKA (KAUNAS , LT) observed 1250 UTC 19 July 2019
Temperature: 23.0°C (73°F)
Dewpoint: 9.0°C (48°F) [RH = 41%]
Pressure (altimeter): 29.91 inches Hg (1013.0 mb)
Winds: from the WNW (290 degrees) at 8 MPH (7 knots; 3.6 m/s)
Visibility: 6 or more miles (10+ km)
Ceiling: ceiling and visibility are OK
Clouds: unknown
Weather: no significant weather observed at this time

Forecast for: EYKA (KAUNAS , LT)
Text: TAF EYKA 191101Z 1912/2012 30014KT 9000 SCT035
Forecast period: 1200 to 1900 UTC 19 July 2019
Forecast type: FROM: standard forecast or significant change
Winds: from the WNW (300 degrees) at 16 MPH (14 knots; 7.2 m/s)
Visibility: 6 miles (9 km)
Ceiling: at least 12,000 feet AGL
Clouds: scattered clouds at 3500 feet AGL
Weather: no significant weather forecast for this period
Text: BECMG 1919/1920 VRB04KT
Forecast period: 1900 UTC 19 July 2019 to 0600 UTC 20 July 2019
Forecast type: BECOMING: Conditions expected to become as follows by 2000 UTC 19 July 2019
Winds: variable direction winds at 5 MPH (4 knots; 2.1 m/s)
Visibility: 6 miles (9 km)
Ceiling: at least 12,000 feet AGL
Clouds: scattered clouds at 3500 feet AGL
Weather: no significant weather forecast for this period
Text: TEMPO 1923/2005 2000 MIFG BR
Forecast period: 2300 UTC 19 July 2019 to 0500 UTC 20 July 2019
Forecast type: TEMPORARY: The following changes expected for less than half the time period
Visibility: 1.24 miles (2.00 km)
Ceiling: unknown
Clouds: missing
Weather: MIFG BR  (shallow fog, mist)
Text: BECMG 2006/2007 16010KT
Forecast period: 0600 to 1200 UTC 20 July 2019
Forecast type: BECOMING: Conditions expected to become as follows by 0700 UTC 20 July 2019
Winds: from the SSE (160 degrees) at 12 MPH (10 knots; 5.1 m/s)
Visibility: 6 miles (9 km)
Ceiling: at least 12,000 feet AGL
Clouds: scattered clouds at 3500 feet AGL
Weather: no significant weather forecast for this period